createdAt,value
2022-08-03T00:00:46.387Z,100.00
2022-08-03T00:03:15.888Z,100.00
2022-08-03T00:06:04.841Z,100.00
2022-08-03T00:08:37.651Z,100.00
2022-08-03T00:11:10.445Z,100.00
2022-08-03T00:13:40.294Z,100.00
2022-08-03T00:16:12.174Z,100.00
2022-08-03T00:18:42.022Z,100.00
2022-08-03T00:21:11.939Z,100.00
2022-08-03T00:23:51.716Z,100.00
2022-08-03T00:26:23.955Z,100.00
2022-08-03T00:28:53.924Z,100.00
2022-08-03T00:31:51.385Z,100.00
2022-08-03T00:34:13.667Z,100.00
2022-08-03T00:36:43.441Z,100.00
2022-08-03T00:39:12.933Z,100.00
2022-08-03T00:41:42.607Z,100.00
2022-08-03T00:44:12.245Z,100.00
2022-08-03T00:46:42.130Z,100.00
2022-08-03T00:49:11.713Z,100.00
2022-08-03T00:51:41.393Z,100.00
2022-08-03T00:54:11.676Z,100.00
2022-08-03T00:56:59.858Z,100.00
2022-08-03T00:59:31.651Z,100.00
2022-08-03T01:02:01.400Z,100.00
2022-08-03T01:04:30.842Z,100.00
2022-08-03T01:07:27.125Z,100.00
2022-08-03T01:10:35.134Z,100.00
2022-08-03T01:14:01.462Z,100.00
2022-08-03T01:16:49.139Z,100.00
2022-08-03T01:19:27.625Z,100.00
2022-08-03T01:22:34.114Z,100.00
2022-08-03T01:25:17.491Z,100.00
2022-08-03T01:28:11.865Z,100.00
2022-08-03T01:30:45.130Z,100.00
2022-08-03T01:33:20.476Z,100.00
2022-08-03T01:36:01.012Z,100.00
2022-08-03T01:38:40.473Z,100.00
2022-08-03T01:41:14.637Z,100.00
2022-08-03T01:44:26.702Z,100.00
2022-08-03T01:46:48.794Z,100.00
2022-08-03T01:49:20.125Z,100.00
2022-08-03T01:52:02.699Z,100.00
2022-08-03T01:54:42.351Z,100.00
2022-08-03T01:57:13.282Z,100.00
2022-08-03T01:59:45.018Z,100.00
2022-08-03T02:02:32.763Z,100.00
2022-08-03T02:05:10.885Z,100.00
2022-08-03T02:07:44.021Z,100.00
2022-08-03T02:10:34.750Z,100.00
2022-08-03T02:13:09.724Z,100.00
2022-08-03T02:15:40.733Z,100.00
2022-08-03T02:18:29.919Z,100.00
2022-08-03T02:21:01.757Z,100.00
2022-08-03T02:23:41.944Z,100.00
2022-08-03T02:26:16.893Z,100.00
2022-08-03T02:28:53.627Z,100.00
2022-08-03T02:31:29.120Z,100.00
2022-08-03T02:34:04.227Z,100.00
2022-08-03T02:36:38.675Z,100.00
2022-08-03T02:39:12.795Z,100.00
2022-08-03T02:41:53.960Z,100.00
2022-08-03T02:44:28.298Z,100.00
2022-08-03T02:47:02.273Z,100.00
2022-08-03T02:49:49.500Z,100.00
2022-08-03T02:52:24.789Z,100.00
2022-08-03T02:54:57.870Z,100.00
2022-08-03T02:57:30.030Z,100.00
2022-08-03T03:00:01.373Z,100.00
2022-08-03T03:02:31.649Z,100.00
2022-08-03T03:05:55.339Z,100.00
2022-08-03T03:07:54.439Z,100.00
2022-08-03T03:10:26.194Z,100.00
2022-08-03T03:12:59.986Z,100.00
2022-08-03T03:15:32.241Z,100.00
2022-08-03T03:18:03.170Z,100.00
2022-08-03T03:20:34.804Z,99.67
2022-08-03T03:23:05.334Z,100.00
2022-08-03T03:25:35.644Z,100.00
2022-08-03T03:28:06.597Z,98.72
2022-08-03T03:30:36.153Z,98.99
2022-08-03T03:33:06.481Z,98.49
2022-08-03T03:35:38.737Z,97.97
2022-08-03T03:38:09.590Z,95.17
2022-08-03T03:40:41.125Z,95.90
2022-08-03T03:43:12.173Z,94.26
2022-08-03T03:45:44.755Z,93.13
2022-08-03T03:48:15.150Z,93.89
2022-08-03T03:50:46.185Z,94.94
2022-08-03T03:53:16.944Z,94.18
2022-08-03T03:55:59.714Z,93.70
2022-08-03T03:58:33.923Z,92.22
2022-08-03T04:01:03.883Z,91.50
2022-08-03T04:03:33.463Z,87.17
2022-08-03T04:06:21.914Z,86.23
2022-08-03T04:09:21.004Z,89.25
2022-08-03T04:11:56.263Z,90.01
2022-08-03T04:14:34.208Z,88.79
2022-08-03T04:17:07.009Z,86.58
2022-08-03T04:19:49.020Z,84.86
2022-08-03T04:22:22.685Z,87.45
2022-08-03T04:25:04.784Z,85.73
2022-08-03T04:27:38.931Z,84.86
2022-08-03T04:30:10.670Z,84.81
2022-08-03T04:32:45.481Z,84.65
2022-08-03T04:35:15.675Z,84.08
2022-08-03T04:37:50.756Z,82.45
2022-08-03T04:40:33.329Z,78.00
2022-08-03T04:43:07.046Z,79.69
2022-08-03T04:45:38.216Z,81.12
2022-08-03T04:48:08.540Z,79.52
2022-08-03T04:50:38.099Z,76.06
2022-08-03T04:53:08.489Z,79.74
2022-08-03T04:55:39.832Z,75.66
2022-08-03T04:58:09.346Z,75.53
2022-08-03T05:00:39.013Z,79.07
2022-08-03T05:03:20.570Z,82.06
2022-08-03T05:06:09.652Z,85.51
2022-08-03T05:08:47.030Z,88.47
2022-08-03T05:11:19.026Z,94.41
2022-08-03T05:13:49.801Z,95.65
2022-08-03T05:16:20.283Z,97.72
2022-08-03T05:18:49.877Z,96.92
2022-08-03T05:21:21.609Z,96.87
2022-08-03T05:23:51.463Z,98.54
2022-08-03T05:26:21.050Z,97.26
2022-08-03T05:28:51.567Z,93.70
2022-08-03T05:31:21.788Z,94.61
2022-08-03T05:33:51.755Z,90.43
2022-08-03T05:36:21.474Z,89.01
2022-08-03T05:38:51.038Z,88.00
2022-08-03T05:41:36.479Z,85.77
2022-08-03T05:44:07.025Z,85.93
2022-08-03T05:46:37.435Z,86.66
2022-08-03T05:49:07.331Z,90.47
2022-08-03T05:51:36.536Z,91.66
2022-08-03T05:54:06.759Z,89.66
2022-08-03T05:56:36.118Z,90.37
2022-08-03T05:59:22.704Z,90.56
2022-08-03T06:01:55.717Z,91.48
2022-08-03T06:04:25.372Z,93.08
2022-08-03T06:06:54.943Z,91.11
2022-08-03T06:09:24.246Z,90.37
2022-08-03T06:12:14.311Z,88.71
2022-08-03T06:14:43.869Z,89.70
2022-08-03T06:17:13.607Z,88.56
2022-08-03T06:19:44.840Z,87.35
2022-08-03T06:22:14.366Z,87.77
2022-08-03T06:24:53.292Z,85.27
2022-08-03T06:27:36.671Z,88.17
2022-08-03T06:30:08.695Z,84.27
2022-08-03T06:32:41.441Z,81.44
2022-08-03T06:35:21.797Z,80.54
2022-08-03T06:37:53.425Z,79.74
2022-08-03T06:40:32.270Z,79.53
2022-08-03T06:43:03.766Z,83.56
2022-08-03T06:45:36.547Z,82.12
2022-08-03T06:48:13.905Z,83.97
2022-08-03T06:50:45.521Z,83.43
2022-08-03T06:53:19.661Z,82.88
2022-08-03T06:55:54.358Z,82.11
2022-08-03T06:58:24.763Z,79.52
2022-08-03T07:00:54.876Z,80.19
2022-08-03T07:03:24.265Z,75.25
2022-08-03T07:05:53.560Z,75.28
2022-08-03T07:08:33.452Z,75.96
2022-08-03T07:11:04.141Z,73.87
2022-08-03T07:13:33.880Z,72.98
2022-08-03T07:16:03.448Z,73.20
2022-08-03T07:18:32.740Z,70.79
2022-08-03T07:21:02.416Z,72.26
2022-08-03T07:23:31.840Z,74.41
2022-08-03T07:26:01.564Z,74.59
2022-08-03T07:28:31.243Z,76.20
2022-08-03T07:31:00.817Z,75.10
2022-08-03T07:33:30.721Z,74.95
2022-08-03T07:36:00.451Z,75.06
2022-08-03T07:38:31.459Z,73.31
2022-08-03T07:41:01.004Z,73.95
2022-08-03T07:43:30.670Z,73.15
2022-08-03T07:46:00.147Z,71.35
2022-08-03T07:48:29.676Z,72.83
2022-08-03T07:50:59.376Z,71.60
2022-08-03T07:53:28.782Z,72.74
2022-08-03T07:55:58.439Z,73.40
2022-08-03T07:58:28.284Z,75.32
2022-08-03T08:00:57.781Z,73.17
2022-08-03T08:03:28.082Z,74.73
2022-08-03T08:06:19.358Z,74.87
2022-08-03T08:08:49.084Z,74.19
2022-08-03T08:11:18.950Z,76.38
2022-08-03T08:13:48.377Z,79.21
2022-08-03T08:16:18.257Z,77.95
2022-08-03T08:18:47.802Z,77.28
2022-08-03T08:21:17.297Z,77.50
2022-08-03T08:23:57.151Z,75.35
2022-08-03T08:26:27.564Z,76.70
2022-08-03T08:28:56.667Z,75.76
2022-08-03T08:31:26.235Z,77.86
2022-08-03T08:34:04.413Z,75.17
2022-08-03T08:36:36.006Z,75.03
2022-08-03T08:39:06.101Z,75.71
2022-08-03T08:41:35.938Z,75.44
2022-08-03T08:44:05.905Z,77.34
2022-08-03T08:46:35.948Z,76.29
2022-08-03T08:49:05.544Z,75.61
2022-08-03T08:51:59.695Z,74.53
2022-08-03T08:54:33.830Z,75.69
2022-08-03T08:57:26.584Z,74.38
2022-08-03T08:59:58.136Z,74.62
2022-08-03T09:02:31.150Z,76.79
2022-08-03T09:05:06.843Z,78.10
2022-08-03T09:07:37.242Z,76.53
2022-08-03T09:10:13.015Z,75.41
2022-08-03T09:12:48.316Z,74.38
2022-08-03T09:15:23.328Z,74.30
2022-08-03T09:17:57.577Z,73.86
2022-08-03T09:20:29.507Z,70.82
2022-08-03T09:23:24.968Z,69.21
2022-08-03T09:26:00.521Z,67.21
2022-08-03T09:29:01.152Z,68.46
2022-08-03T09:31:34.974Z,67.56
2022-08-03T09:34:07.049Z,67.45
2022-08-03T09:36:40.809Z,68.84
2022-08-03T09:39:13.273Z,70.67
2022-08-03T09:41:44.988Z,69.01
2022-08-03T09:44:25.333Z,68.11
2022-08-03T09:46:57.668Z,67.12
2022-08-03T09:49:27.404Z,70.39
2022-08-03T09:52:32.485Z,72.15
2022-08-03T09:54:52.971Z,74.39
2022-08-03T09:57:27.066Z,70.80
2022-08-03T10:00:08.415Z,73.89
2022-08-03T10:02:46.523Z,73.50
2022-08-03T10:05:19.619Z,75.95
2022-08-03T10:07:51.755Z,75.52
2022-08-03T10:10:30.347Z,75.12
2022-08-03T10:13:01.888Z,78.69
2022-08-03T10:16:23.842Z,80.05
2022-08-03T10:18:21.397Z,81.20
2022-08-03T10:21:04.380Z,79.31
2022-08-03T10:23:37.278Z,79.47
2022-08-03T10:26:09.824Z,79.75
2022-08-03T10:28:48.908Z,79.54
2022-08-03T10:31:22.317Z,81.22
2022-08-03T10:33:57.649Z,79.93
2022-08-03T10:36:32.759Z,78.08
2022-08-03T10:39:04.604Z,74.53
2022-08-03T10:41:48.247Z,74.30
2022-08-03T10:44:24.607Z,72.84
2022-08-03T10:46:54.966Z,74.82
2022-08-03T10:49:35.173Z,74.13
2022-08-03T10:52:13.102Z,76.13
2022-08-03T10:55:14.506Z,74.91
2022-08-03T10:57:58.632Z,74.54
2022-08-03T11:00:31.514Z,75.76
2022-08-03T11:03:12.961Z,75.28
2022-08-03T11:05:50.905Z,76.49
2022-08-03T11:08:31.009Z,76.01
2022-08-03T11:11:03.529Z,76.29
2022-08-03T11:13:34.966Z,77.74
2022-08-03T11:16:22.058Z,77.07
2022-08-03T11:19:19.623Z,76.22
2022-08-03T11:21:52.949Z,79.56
2022-08-03T11:24:48.585Z,78.97
2022-08-03T11:27:19.240Z,78.87
2022-08-03T11:30:10.019Z,77.78
2022-08-03T11:32:39.879Z,78.11
2022-08-03T11:35:16.516Z,78.24
2022-08-03T11:38:08.421Z,78.86
2022-08-03T11:40:37.998Z,77.96
2022-08-03T11:43:32.320Z,78.55
2022-08-03T11:46:09.060Z,79.22
2022-08-03T11:48:46.702Z,78.74
2022-08-03T11:51:23.888Z,79.12
2022-08-03T11:53:55.717Z,77.44
2022-08-03T11:56:25.477Z,75.80
2022-08-03T11:59:20.283Z,76.60
2022-08-03T12:01:47.294Z,75.30
2022-08-03T12:04:17.282Z,74.01
2022-08-03T12:07:03.523Z,73.31
2022-08-03T12:09:35.384Z,75.74
2022-08-03T12:12:05.435Z,74.16
2022-08-03T12:14:49.910Z,75.67
2022-08-03T12:17:22.222Z,77.34
2022-08-03T12:19:52.303Z,76.06
2022-08-03T12:22:34.201Z,73.81
2022-08-03T12:25:03.804Z,74.35
2022-08-03T12:27:33.815Z,75.33
2022-08-03T12:30:04.599Z,76.97
2022-08-03T12:32:33.994Z,78.88
2022-08-03T12:35:05.772Z,77.35
2022-08-03T12:37:35.599Z,75.99
2022-08-03T12:40:10.630Z,77.77
2022-08-03T12:42:42.110Z,78.45
2022-08-03T12:45:40.974Z,76.72
2022-08-03T12:48:13.041Z,76.19
2022-08-03T12:50:42.752Z,80.02
2022-08-03T12:53:12.370Z,78.58
2022-08-03T12:55:57.574Z,78.68
2022-08-03T12:58:38.069Z,78.37
2022-08-03T13:01:10.770Z,79.24
2022-08-03T13:03:45.834Z,79.85
2022-08-03T13:06:27.919Z,80.25
2022-08-03T13:09:08.950Z,80.74
2022-08-03T13:11:57.511Z,81.35
2022-08-03T13:14:28.226Z,80.39
2022-08-03T13:16:57.576Z,80.32
2022-08-03T13:19:26.996Z,81.58
2022-08-03T13:22:03.265Z,81.52
2022-08-03T13:24:35.425Z,82.12
2022-08-03T13:28:02.292Z,82.97
2022-08-03T13:29:59.053Z,80.91
2022-08-03T13:32:40.204Z,82.24
2022-08-03T13:35:30.985Z,84.56
2022-08-03T13:38:00.442Z,83.01
2022-08-03T13:40:36.761Z,83.31
2022-08-03T13:43:11.439Z,85.89
2022-08-03T13:45:42.864Z,86.05
2022-08-03T13:48:15.395Z,86.82
2022-08-03T13:51:21.847Z,86.68
2022-08-03T13:53:53.408Z,88.08
2022-08-03T13:56:23.245Z,88.59
2022-08-03T13:58:52.575Z,88.49
2022-08-03T14:01:53.677Z,89.93
2022-08-03T14:04:21.824Z,90.61
2022-08-03T14:06:52.122Z,90.42
2022-08-03T14:09:21.796Z,91.32
2022-08-03T14:12:07.045Z,90.50
2022-08-03T14:14:37.507Z,90.73
2022-08-03T14:17:07.008Z,90.64
2022-08-03T14:19:53.392Z,91.93
2022-08-03T14:22:24.027Z,92.41
2022-08-03T14:24:53.348Z,92.41
2022-08-03T14:27:23.106Z,92.09
2022-08-03T14:29:52.924Z,92.29
2022-08-03T14:32:22.675Z,93.08
2022-08-03T14:34:52.021Z,91.77
2022-08-03T14:37:21.871Z,90.62
2022-08-03T14:39:59.928Z,89.84
2022-08-03T14:42:30.245Z,89.41
2022-08-03T14:45:04.614Z,90.08
2022-08-03T14:49:00.889Z,92.43
2022-08-03T14:50:30.177Z,92.79
2022-08-03T14:53:08.484Z,90.12
2022-08-03T14:55:38.827Z,92.18
2022-08-03T14:58:21.852Z,90.35
2022-08-03T15:00:53.349Z,91.13
2022-08-03T15:03:26.907Z,92.14
2022-08-03T15:05:58.206Z,93.46
2022-08-03T15:08:28.419Z,93.16
2022-08-03T15:10:57.751Z,93.76
2022-08-03T15:13:27.962Z,94.04
2022-08-03T15:15:58.971Z,92.47
2022-08-03T15:18:28.515Z,92.55
2022-08-03T15:20:57.516Z,93.44
2022-08-03T15:23:27.655Z,93.90
2022-08-03T15:26:04.010Z,93.19
2022-08-03T15:28:50.377Z,93.03
2022-08-03T15:31:24.518Z,94.11
2022-08-03T15:33:53.846Z,94.32
2022-08-03T15:36:23.829Z,93.43
2022-08-03T15:38:54.587Z,91.51
2022-08-03T15:41:24.214Z,88.50
2022-08-03T15:43:54.557Z,87.47
2022-08-03T15:46:29.626Z,86.41
2022-08-03T15:49:00.356Z,83.10
2022-08-03T15:51:29.787Z,85.16
2022-08-03T15:53:59.273Z,87.93
2022-08-03T15:56:28.629Z,85.69
2022-08-03T15:59:13.299Z,83.87
2022-08-03T16:01:44.199Z,85.10
2022-08-03T16:04:13.836Z,85.49
2022-08-03T16:06:43.085Z,86.22
2022-08-03T16:09:23.521Z,86.05
2022-08-03T16:12:02.319Z,85.34
2022-08-03T16:14:38.928Z,85.82
2022-08-03T16:17:16.401Z,84.59
2022-08-03T16:19:45.584Z,87.33
2022-08-03T16:22:15.134Z,88.09
2022-08-03T16:24:44.449Z,87.55
2022-08-03T16:27:36.596Z,88.75
2022-08-03T16:30:05.040Z,85.93
2022-08-03T16:32:35.185Z,87.32
2022-08-03T16:35:04.478Z,86.69
2022-08-03T16:37:38.641Z,85.17
2022-08-03T16:40:17.670Z,85.02
2022-08-03T16:42:49.101Z,84.08
2022-08-03T16:45:19.190Z,84.52
2022-08-03T16:48:01.276Z,84.75
2022-08-03T16:50:35.437Z,83.34
2022-08-03T16:53:10.126Z,81.76
2022-08-03T16:55:54.136Z,81.91
2022-08-03T16:58:41.494Z,84.60
2022-08-03T17:01:21.542Z,83.67
2022-08-03T17:04:03.072Z,84.11
2022-08-03T17:06:44.943Z,82.88
2022-08-03T17:09:18.127Z,82.28
2022-08-03T17:11:50.540Z,82.62
2022-08-03T17:14:28.280Z,83.59
2022-08-03T17:17:02.486Z,84.90
2022-08-03T17:19:37.570Z,84.11
2022-08-03T17:22:14.271Z,84.89
2022-08-03T17:24:53.525Z,86.38
2022-08-03T17:28:48.946Z,86.13
2022-08-03T17:30:21.128Z,86.20
2022-08-03T17:32:57.489Z,89.00
2022-08-03T17:35:36.459Z,88.58
2022-08-03T17:38:13.587Z,88.77
2022-08-03T17:40:49.964Z,89.96
2022-08-03T17:43:44.365Z,91.10
2022-08-03T17:46:12.271Z,91.92
2022-08-03T17:48:43.003Z,93.00
2022-08-03T17:51:32.325Z,94.40
2022-08-03T17:54:18.482Z,92.36
2022-08-03T17:57:27.269Z,92.14
2022-08-03T18:00:32.662Z,91.53
2022-08-03T18:03:22.922Z,91.81
2022-08-03T18:06:11.500Z,93.40
2022-08-03T18:08:57.578Z,94.20
2022-08-03T18:11:35.586Z,97.62
2022-08-03T18:14:23.852Z,97.49
2022-08-03T18:17:17.024Z,98.31
2022-08-03T18:22:37.739Z,100.00
2022-08-03T18:25:13.251Z,100.00
2022-08-03T18:27:45.726Z,100.00
2022-08-03T18:30:16.785Z,100.00
2022-08-03T18:33:00.842Z,100.00
2022-08-03T18:35:53.689Z,100.00
2022-08-03T18:38:24.793Z,100.00
2022-08-03T18:40:54.907Z,100.00
2022-08-03T18:43:46.375Z,100.00
2022-08-03T18:46:52.735Z,100.00
2022-08-03T18:49:53.726Z,100.00
2022-08-03T18:52:52.857Z,100.00
2022-08-03T18:55:33.668Z,100.00
2022-08-03T18:58:17.826Z,100.00
2022-08-03T19:01:03.482Z,100.00
2022-08-03T19:03:42.875Z,100.00
2022-08-03T19:06:21.131Z,100.00
2022-08-03T19:09:05.433Z,100.00
2022-08-03T19:12:12.741Z,100.00
2022-08-03T19:14:50.727Z,100.00
2022-08-03T19:17:23.456Z,100.00
2022-08-03T19:20:01.567Z,100.00
2022-08-03T19:22:32.151Z,100.00
2022-08-03T19:25:03.714Z,100.00
2022-08-03T19:27:33.761Z,100.00
2022-08-03T19:30:14.134Z,100.00
2022-08-03T19:32:53.520Z,100.00
2022-08-03T19:35:27.461Z,100.00
2022-08-03T19:38:12.907Z,100.00
2022-08-03T19:40:51.127Z,100.00
2022-08-03T19:43:32.922Z,100.00
2022-08-03T19:46:21.192Z,100.00
2022-08-03T19:48:57.177Z,100.00
2022-08-03T19:52:00.654Z,100.00
2022-08-03T19:54:29.854Z,100.00
2022-08-03T19:57:04.755Z,100.00
2022-08-03T19:59:42.223Z,100.00
2022-08-03T20:02:26.598Z,100.00
2022-08-03T20:04:59.806Z,100.00
2022-08-03T20:07:34.308Z,100.00
2022-08-03T20:10:06.985Z,100.00
2022-08-03T20:12:39.393Z,100.00
2022-08-03T20:15:08.869Z,100.00
2022-08-03T20:17:54.398Z,100.00
2022-08-03T20:20:34.780Z,100.00
2022-08-03T20:23:12.797Z,100.00
2022-08-03T20:25:57.151Z,100.00
2022-08-03T20:28:51.401Z,100.00
2022-08-03T20:31:32.115Z,100.00
2022-08-03T20:34:09.130Z,100.00
2022-08-03T20:36:38.706Z,100.00
2022-08-03T20:39:09.128Z,100.00
2022-08-03T20:41:39.995Z,100.00
2022-08-03T20:44:09.571Z,100.00
2022-08-03T20:46:56.300Z,100.00
2022-08-03T20:49:29.581Z,100.00
2022-08-03T20:52:18.717Z,100.00
2022-08-03T20:54:49.540Z,100.00
2022-08-03T20:57:19.663Z,100.00
2022-08-03T20:59:51.395Z,100.00
2022-08-03T21:02:40.792Z,100.00
2022-08-03T21:05:11.877Z,100.00
2022-08-03T21:08:05.050Z,100.00
2022-08-03T21:10:42.099Z,100.00
2022-08-03T21:12:57.649Z,100.00
2022-08-03T21:16:12.099Z,100.00
2022-08-03T21:18:53.586Z,100.00
2022-08-03T21:21:25.207Z,100.00
2022-08-03T21:23:56.608Z,100.00
2022-08-03T21:26:28.484Z,100.00
2022-08-03T21:28:58.554Z,100.00
2022-08-03T21:31:28.487Z,99.76
2022-08-03T21:34:01.511Z,99.25
2022-08-03T21:36:33.550Z,98.91
2022-08-03T21:39:06.453Z,100.00
2022-08-03T21:41:37.251Z,100.00
2022-08-03T21:44:07.440Z,100.00
2022-08-03T21:46:42.137Z,100.00
2022-08-03T21:49:51.798Z,100.00
2022-08-03T21:52:07.343Z,100.00
2022-08-03T21:54:39.624Z,99.71
2022-08-03T21:57:30.726Z,98.93
2022-08-03T22:00:16.515Z,98.43
2022-08-03T22:02:58.250Z,98.35
2022-08-03T22:05:43.715Z,99.43
2022-08-03T22:08:17.172Z,99.52
2022-08-03T22:10:47.624Z,98.13
2022-08-03T22:13:43.082Z,100.00
2022-08-03T22:16:09.870Z,99.47
2022-08-03T22:18:41.638Z,98.72
2022-08-03T22:21:28.000Z,98.74
2022-08-03T22:24:07.572Z,99.33
2022-08-03T22:26:41.175Z,99.50
2022-08-03T22:29:10.925Z,100.00
2022-08-03T22:31:59.138Z,100.00
2022-08-03T22:34:30.989Z,100.00
2022-08-03T22:37:05.128Z,100.00
2022-08-03T22:39:36.576Z,100.00
2022-08-03T22:42:07.625Z,100.00
2022-08-03T22:44:38.102Z,100.00
2022-08-03T22:47:08.315Z,100.00
2022-08-03T22:49:39.029Z,100.00
2022-08-03T22:52:09.755Z,100.00
2022-08-03T22:54:39.569Z,100.00
2022-08-03T22:57:10.153Z,100.00
2022-08-03T22:59:42.088Z,100.00
2022-08-03T23:02:21.780Z,100.00
2022-08-03T23:04:53.519Z,100.00
2022-08-03T23:07:32.682Z,100.00
2022-08-03T23:10:08.276Z,100.00
2022-08-03T23:12:39.609Z,100.00
2022-08-03T23:15:14.012Z,100.00
2022-08-03T23:17:59.001Z,100.00
2022-08-03T23:20:29.211Z,100.00
2022-08-03T23:22:59.283Z,100.00
2022-08-03T23:25:29.695Z,100.00
2022-08-03T23:28:04.848Z,100.00
2022-08-03T23:30:39.583Z,100.00
2022-08-03T23:33:14.794Z,100.00
2022-08-03T23:36:29.821Z,100.00
2022-08-03T23:38:52.462Z,100.00
2022-08-03T23:41:22.656Z,100.00
2022-08-03T23:43:54.422Z,100.00
2022-08-03T23:46:25.852Z,100.00
2022-08-03T23:48:56.685Z,100.00
2022-08-03T23:51:32.567Z,100.00
2022-08-03T23:54:15.210Z,100.00
2022-08-03T23:57:06.430Z,100.00
2022-08-03T23:59:54.088Z,100.00
